createdAt,value
2023-05-20T00:00:02.246Z,901.42
2023-05-20T00:02:34.245Z,898.08
2023-05-20T00:05:02.178Z,898.50
2023-05-20T00:07:30.332Z,887.10
2023-05-20T00:09:57.957Z,889.45
2023-05-20T00:12:25.558Z,878.88
2023-05-20T00:14:53.957Z,856.97
2023-05-20T00:17:23.386Z,831.60
2023-05-20T00:19:51.527Z,826.97
2023-05-20T00:22:19.012Z,841.75
2023-05-20T00:24:47.151Z,906.22
2023-05-20T00:27:15.275Z,900.97
2023-05-20T00:29:43.376Z,887.13
2023-05-20T00:32:11.446Z,899.72
2023-05-20T00:34:39.214Z,901.63
2023-05-20T00:37:07.296Z,899.75
2023-05-20T00:39:34.882Z,906.50
2023-05-20T00:42:03.556Z,904.25
2023-05-20T00:44:31.187Z,919.00
2023-05-20T00:46:58.810Z,923.13
2023-05-20T00:49:26.545Z,916.85
2023-05-20T00:51:54.818Z,914.57
2023-05-20T00:54:22.645Z,921.28
2023-05-20T00:56:51.100Z,918.63
2023-05-20T00:59:19.000Z,923.08
2023-05-20T01:01:47.236Z,927.80
2023-05-20T01:04:15.760Z,908.25
2023-05-20T01:06:46.293Z,909.95
2023-05-20T01:09:14.020Z,904.53
2023-05-20T01:12:16.881Z,894.00
2023-05-20T01:14:50.080Z,905.67
2023-05-20T01:17:20.988Z,912.95
2023-05-20T01:19:49.592Z,914.30
2023-05-20T01:22:17.246Z,909.33
2023-05-20T01:24:53.531Z,910.05
2023-05-20T01:27:22.710Z,905.60
2023-05-20T01:29:51.946Z,902.72
2023-05-20T01:32:25.333Z,911.35
2023-05-20T01:34:53.917Z,912.17
2023-05-20T01:37:23.294Z,915.17
2023-05-20T01:39:52.446Z,912.22
2023-05-20T01:42:21.132Z,913.47
2023-05-20T01:44:50.139Z,923.13
2023-05-20T01:47:18.257Z,925.28
2023-05-20T01:49:46.446Z,926.05
2023-05-20T01:52:14.182Z,924.83
2023-05-20T01:54:42.199Z,928.17
2023-05-20T01:57:10.975Z,929.78
2023-05-20T01:59:39.804Z,921.42
2023-05-20T02:02:07.982Z,929.92
2023-05-20T02:04:36.310Z,920.22
2023-05-20T02:07:04.535Z,920.60
2023-05-20T02:09:32.073Z,920.33
2023-05-20T02:11:59.719Z,915.45
2023-05-20T02:14:27.621Z,921.42
2023-05-20T02:16:56.427Z,919.27
2023-05-20T02:19:24.265Z,925.10
2023-05-20T02:21:51.824Z,914.88
2023-05-20T02:24:21.289Z,921.10
2023-05-20T02:26:51.237Z,918.72
2023-05-20T02:29:22.129Z,913.97
2023-05-20T02:31:50.779Z,913.58
2023-05-20T02:34:19.179Z,921.80
2023-05-20T02:36:46.818Z,914.37
2023-05-20T02:39:14.509Z,917.90
2023-05-20T02:41:42.467Z,919.75
2023-05-20T02:44:10.947Z,919.10
2023-05-20T02:46:38.978Z,917.67
2023-05-20T02:49:06.596Z,919.42
2023-05-20T02:51:34.181Z,914.72
2023-05-20T02:54:02.284Z,917.92
2023-05-20T02:56:30.138Z,914.00
2023-05-20T02:58:57.700Z,915.17
2023-05-20T03:01:25.804Z,919.53
2023-05-20T03:03:53.911Z,915.20
2023-05-20T03:06:21.561Z,919.92
2023-05-20T03:08:51.404Z,921.13
2023-05-20T03:11:19.407Z,931.50
2023-05-20T03:13:47.536Z,919.75
2023-05-20T03:16:18.583Z,924.53
2023-05-20T03:18:46.588Z,927.28
2023-05-20T03:21:14.969Z,928.60
2023-05-20T03:23:42.967Z,935.28
2023-05-20T03:26:10.520Z,933.97
2023-05-20T03:28:38.118Z,933.90
2023-05-20T03:31:06.631Z,935.17
2023-05-20T03:33:36.072Z,939.30
2023-05-20T03:36:05.093Z,944.53
2023-05-20T03:38:33.272Z,943.13
2023-05-20T03:41:01.466Z,940.55
2023-05-20T03:43:29.027Z,940.87
2023-05-20T03:45:57.162Z,937.28
2023-05-20T03:48:24.878Z,942.90
2023-05-20T03:50:53.351Z,934.60
2023-05-20T03:53:21.232Z,936.97
2023-05-20T03:55:48.885Z,934.88
2023-05-20T03:58:16.774Z,938.60
2023-05-20T04:00:44.759Z,937.03
2023-05-20T04:03:13.000Z,932.63
2023-05-20T04:05:40.642Z,938.88
2023-05-20T04:08:16.150Z,935.43
2023-05-20T04:10:44.586Z,935.90
2023-05-20T04:13:13.567Z,933.90
2023-05-20T04:15:42.441Z,932.33
2023-05-20T04:18:13.268Z,929.53
2023-05-20T04:20:41.706Z,933.80
2023-05-20T04:23:10.831Z,932.95
2023-05-20T04:25:39.330Z,930.65
2023-05-20T04:28:10.813Z,933.95
2023-05-20T04:30:38.841Z,937.72
2023-05-20T04:33:06.915Z,939.47
2023-05-20T04:35:37.647Z,935.28
2023-05-20T04:38:07.673Z,936.72
2023-05-20T04:40:35.632Z,942.85
2023-05-20T04:43:04.087Z,942.53
2023-05-20T04:45:34.240Z,944.22
2023-05-20T04:48:02.197Z,943.77
2023-05-20T04:50:29.798Z,944.45
2023-05-20T04:52:57.758Z,947.83
2023-05-20T04:55:26.010Z,949.53
2023-05-20T04:57:54.241Z,945.17
2023-05-20T05:00:21.811Z,952.30
2023-05-20T05:02:49.927Z,950.30
2023-05-20T05:05:17.964Z,958.00
2023-05-20T05:07:45.922Z,962.67
2023-05-20T05:10:14.020Z,965.87
2023-05-20T05:12:42.063Z,970.80
2023-05-20T05:15:11.087Z,970.80
2023-05-20T05:17:38.876Z,978.13
2023-05-20T05:20:08.918Z,978.15
2023-05-20T05:22:37.190Z,985.80
2023-05-20T05:25:05.358Z,990.72
2023-05-20T05:27:33.032Z,1001.20
2023-05-20T05:30:03.067Z,1004.50
2023-05-20T05:32:32.199Z,1006.40
2023-05-20T05:35:00.153Z,1009.20
2023-05-20T05:37:29.639Z,1003.40
2023-05-20T05:39:57.284Z,1007.80
2023-05-20T05:42:25.487Z,1008.67
2023-05-20T05:44:53.572Z,1019.63
2023-05-20T05:47:21.805Z,1018.00
2023-05-20T05:49:49.633Z,1029.80
2023-05-20T05:52:17.186Z,1013.78
2023-05-20T05:54:44.754Z,1022.28
2023-05-20T05:57:13.181Z,1015.38
2023-05-20T05:59:41.563Z,1018.10
2023-05-20T06:02:10.925Z,1024.10
2023-05-20T06:04:39.021Z,1032.47
2023-05-20T06:07:07.157Z,1031.80
2023-05-20T06:09:35.302Z,1029.45
2023-05-20T06:12:03.746Z,1025.97
2023-05-20T06:14:32.626Z,1025.85
2023-05-20T06:17:01.128Z,1018.88
2023-05-20T06:19:29.620Z,1016.17
2023-05-20T06:21:58.789Z,1011.15
2023-05-20T06:24:26.853Z,1006.40
2023-05-20T06:26:55.156Z,1005.35
2023-05-20T06:29:23.771Z,999.10
2023-05-20T06:31:51.783Z,994.50
2023-05-20T06:34:19.416Z,992.72
2023-05-20T06:36:47.110Z,984.35
2023-05-20T06:39:16.368Z,995.90
2023-05-20T06:41:45.942Z,998.67
2023-05-20T06:44:20.418Z,1003.88
2023-05-20T06:47:18.429Z,1006.80
2023-05-20T06:49:48.596Z,1003.67
2023-05-20T06:52:17.620Z,1006.08
2023-05-20T06:54:46.168Z,1004.35
2023-05-20T06:57:15.167Z,1005.38
2023-05-20T06:59:42.729Z,1008.35
2023-05-20T07:02:11.713Z,1010.25
2023-05-20T07:04:39.366Z,1013.53
2023-05-20T07:07:06.982Z,1016.03
2023-05-20T07:09:34.626Z,1020.63
2023-05-20T07:12:02.360Z,1017.88
2023-05-20T07:14:30.832Z,1021.65
2023-05-20T07:16:58.392Z,1021.67
2023-05-20T07:19:26.068Z,1032.03
2023-05-20T07:21:54.388Z,1033.38
2023-05-20T07:24:40.853Z,1035.18
2023-05-20T07:27:09.537Z,1032.10
2023-05-20T07:29:37.533Z,1034.28
2023-05-20T07:32:06.064Z,1035.88
2023-05-20T07:34:35.607Z,1039.00
2023-05-20T07:37:04.270Z,1040.15
2023-05-20T07:39:32.791Z,1037.55
2023-05-20T07:42:00.397Z,1041.23
2023-05-20T07:44:28.059Z,1040.97
2023-05-20T07:46:56.729Z,1029.68
2023-05-20T07:49:24.775Z,1027.87
2023-05-20T07:51:52.550Z,1027.18
2023-05-20T07:54:20.783Z,1027.57
2023-05-20T07:56:51.586Z,1023.53
2023-05-20T07:59:19.907Z,1015.58
2023-05-20T08:01:49.579Z,1012.50
2023-05-20T08:04:19.941Z,1007.73
2023-05-20T08:06:47.548Z,1008.13
2023-05-20T08:09:22.614Z,998.53
2023-05-20T08:11:54.219Z,997.65
2023-05-20T08:14:21.855Z,991.55
2023-05-20T08:16:55.012Z,996.22
2023-05-20T08:19:23.269Z,998.60
2023-05-20T08:21:51.063Z,994.50
2023-05-20T08:24:19.078Z,993.47
2023-05-20T08:26:47.120Z,993.15
2023-05-20T08:29:16.495Z,996.37
2023-05-20T08:31:44.959Z,984.88
2023-05-20T08:34:13.790Z,986.13
2023-05-20T08:36:42.432Z,973.03
2023-05-20T08:39:10.782Z,967.03
2023-05-20T08:41:39.817Z,968.13
2023-05-20T08:44:11.616Z,967.95
2023-05-20T08:46:41.481Z,964.80
2023-05-20T08:49:09.655Z,940.97
2023-05-20T08:51:38.843Z,953.33
2023-05-20T08:54:08.963Z,968.47
2023-05-20T08:56:37.008Z,967.70
2023-05-20T08:59:05.540Z,957.55
2023-05-20T09:01:37.096Z,960.55
2023-05-20T09:04:05.230Z,957.08
2023-05-20T09:06:46.109Z,968.75
2023-05-20T09:09:14.761Z,965.30
2023-05-20T09:11:43.270Z,969.83
2023-05-20T09:14:10.930Z,968.92
2023-05-20T09:16:41.530Z,963.17
2023-05-20T09:19:11.122Z,971.47
2023-05-20T09:21:41.499Z,979.70
2023-05-20T09:24:09.647Z,973.58
2023-05-20T09:26:37.765Z,977.90
2023-05-20T09:29:05.492Z,977.38
2023-05-20T09:31:34.104Z,981.28
2023-05-20T09:34:02.890Z,978.33
2023-05-20T09:36:35.227Z,974.80
2023-05-20T09:39:05.545Z,973.28
2023-05-20T09:41:45.162Z,987.03
2023-05-20T09:44:14.141Z,993.60
2023-05-20T09:46:44.166Z,996.90
2023-05-20T09:49:13.268Z,1000.50
2023-05-20T09:51:42.113Z,1018.75
2023-05-20T09:54:12.911Z,1019.75
2023-05-20T09:56:42.262Z,1024.32
2023-05-20T09:59:11.655Z,1025.25
2023-05-20T10:01:39.300Z,1020.90
2023-05-20T10:04:09.597Z,1025.07
2023-05-20T10:06:43.472Z,1022.17
2023-05-20T10:09:30.405Z,1032.97
2023-05-20T10:12:29.856Z,1040.38
2023-05-20T10:15:10.601Z,1041.25
2023-05-20T10:18:07.330Z,1043.15
2023-05-20T10:20:46.321Z,1063.88
2023-05-20T10:23:24.123Z,1065.22
2023-05-20T10:25:53.667Z,1070.50
2023-05-20T10:28:33.071Z,1074.47
2023-05-20T10:31:00.924Z,1080.90
2023-05-20T10:33:29.663Z,1078.63
2023-05-20T10:36:01.270Z,1071.38
2023-05-20T10:38:29.138Z,1070.00
2023-05-20T10:41:09.160Z,1070.63
2023-05-20T10:43:37.527Z,1058.93
2023-05-20T10:46:07.549Z,1052.10
2023-05-20T10:48:43.186Z,1067.57
2023-05-20T10:51:15.120Z,1066.27
2023-05-20T10:53:46.953Z,1069.63
2023-05-20T10:56:25.594Z,1074.32
2023-05-20T10:58:54.997Z,1080.47
2023-05-20T11:01:27.246Z,1071.85
2023-05-20T11:03:57.464Z,1072.32
2023-05-20T11:06:29.127Z,1082.60
2023-05-20T11:09:07.333Z,1082.10
2023-05-20T11:11:35.405Z,1087.63
2023-05-20T11:14:03.195Z,1081.90
2023-05-20T11:16:31.622Z,1064.30
2023-05-20T11:18:59.483Z,1070.43
2023-05-20T11:21:28.554Z,1073.25
2023-05-20T11:23:56.184Z,1060.07
2023-05-20T11:26:25.148Z,1059.10
2023-05-20T11:28:53.330Z,1056.47
2023-05-20T11:31:21.786Z,1045.88
2023-05-20T11:33:50.917Z,1040.32
2023-05-20T11:36:27.482Z,1039.30
2023-05-20T11:38:58.285Z,1031.05
2023-05-20T11:41:29.422Z,1029.60
2023-05-20T11:44:01.311Z,1034.20
2023-05-20T11:46:29.127Z,1036.20
2023-05-20T11:48:58.018Z,1027.03
2023-05-20T11:51:30.139Z,1022.25
2023-05-20T11:54:02.876Z,1014.50
2023-05-20T11:56:32.077Z,1019.95
2023-05-20T11:59:01.180Z,1017.38
2023-05-20T12:01:42.967Z,1016.45
2023-05-20T12:04:12.044Z,1010.95
2023-05-20T12:06:40.166Z,1014.75
2023-05-20T12:09:08.744Z,1013.88
2023-05-20T12:11:39.818Z,1022.97
2023-05-20T12:14:08.248Z,1025.05
2023-05-20T12:16:37.006Z,1025.70
2023-05-20T12:19:04.971Z,1033.83
2023-05-20T12:21:33.112Z,1037.13
2023-05-20T12:24:01.164Z,1030.95
2023-05-20T12:26:30.175Z,1022.97
2023-05-20T12:28:58.138Z,1016.25
2023-05-20T12:31:26.572Z,1022.92
2023-05-20T12:33:54.158Z,1028.35
2023-05-20T12:36:22.003Z,1019.03
2023-05-20T12:38:49.515Z,1029.72
2023-05-20T12:41:17.233Z,1032.00
2023-05-20T12:43:44.793Z,1033.72
2023-05-20T12:46:12.851Z,1029.75
2023-05-20T12:48:42.711Z,1040.72
2023-05-20T12:51:10.548Z,1048.95
2023-05-20T12:53:38.439Z,1048.22
2023-05-20T12:56:07.891Z,1052.78
2023-05-20T12:58:36.071Z,1035.55
2023-05-20T13:01:04.335Z,1038.80
2023-05-20T13:03:32.303Z,1037.53
2023-05-20T13:06:00.638Z,1045.40
2023-05-20T13:08:28.790Z,1048.05
2023-05-20T13:10:57.195Z,1033.23
2023-05-20T13:13:24.782Z,1034.18
2023-05-20T13:15:53.255Z,1040.40
2023-05-20T13:18:21.510Z,1049.90
2023-05-20T13:20:49.144Z,1047.97
2023-05-20T13:23:16.732Z,1055.72
2023-05-20T13:25:45.202Z,1046.50
2023-05-20T13:28:16.646Z,1054.80
2023-05-20T13:30:44.853Z,1052.68
2023-05-20T13:33:12.945Z,1054.70
2023-05-20T13:35:41.095Z,1045.65
2023-05-20T13:38:10.460Z,1053.90
2023-05-20T13:40:37.962Z,1053.18
2023-05-20T13:43:05.580Z,1054.85
2023-05-20T13:45:33.597Z,1063.55
2023-05-20T13:48:01.761Z,1054.15
2023-05-20T13:50:29.472Z,1054.35
2023-05-20T13:52:57.532Z,1052.20
2023-05-20T13:55:26.051Z,1058.05
2023-05-20T13:57:54.402Z,1057.93
2023-05-20T14:00:22.505Z,1048.60
2023-05-20T14:02:50.555Z,1048.15
2023-05-20T14:05:18.994Z,1051.18
2023-05-20T14:07:46.603Z,1056.50
2023-05-20T14:10:14.526Z,1062.68
2023-05-20T14:12:48.049Z,1075.07
2023-05-20T14:15:16.349Z,1079.10
2023-05-20T14:17:44.253Z,1072.63
2023-05-20T14:20:12.223Z,1066.95
2023-05-20T14:22:40.229Z,1066.47
2023-05-20T14:25:09.182Z,1077.28
2023-05-20T14:27:36.735Z,1088.88
2023-05-20T14:30:04.886Z,1094.60
2023-05-20T14:32:32.698Z,1095.35
2023-05-20T14:35:00.572Z,1088.75
2023-05-20T14:37:28.279Z,1073.87
2023-05-20T14:39:56.240Z,1082.03
2023-05-20T14:42:24.206Z,1091.32
2023-05-20T14:44:51.763Z,1093.65
2023-05-20T14:47:22.275Z,1087.13
2023-05-20T14:49:50.283Z,1075.35
2023-05-20T14:52:19.259Z,1063.70
2023-05-20T14:54:46.901Z,1067.15
2023-05-20T14:57:16.097Z,1052.72
2023-05-20T14:59:44.378Z,1053.50
2023-05-20T15:02:15.587Z,1047.65
2023-05-20T15:04:46.427Z,1049.07
2023-05-20T15:07:15.234Z,1048.22
2023-05-20T15:09:43.970Z,1046.05
2023-05-20T15:12:12.092Z,1050.05
2023-05-20T15:14:40.187Z,1029.07
2023-05-20T15:17:08.580Z,1017.83
2023-05-20T15:19:39.639Z,1033.32
2023-05-20T15:22:08.586Z,1018.00
2023-05-20T15:24:36.206Z,1018.17
2023-05-20T15:27:04.334Z,998.70
2023-05-20T15:29:31.942Z,1010.78
2023-05-20T15:31:59.571Z,998.03
2023-05-20T15:34:28.116Z,1016.83
2023-05-20T15:36:56.108Z,1021.28
2023-05-20T15:39:23.680Z,1013.53
2023-05-20T15:41:52.378Z,1028.32
2023-05-20T15:44:20.960Z,1028.63
2023-05-20T15:46:49.339Z,1024.05
2023-05-20T15:49:17.479Z,1035.03
2023-05-20T15:51:52.163Z,1032.47
2023-05-20T15:54:30.107Z,1040.37
2023-05-20T15:56:58.137Z,1042.75
2023-05-20T15:59:26.685Z,1041.57
2023-05-20T16:01:54.255Z,1030.40
2023-05-20T16:04:22.370Z,1026.50
2023-05-20T16:06:50.083Z,1030.00
2023-05-20T16:09:17.671Z,1034.72
2023-05-20T16:11:45.913Z,1041.32
2023-05-20T16:14:13.846Z,1042.37
2023-05-20T16:16:42.003Z,1041.53
2023-05-20T16:19:10.317Z,1036.88
2023-05-20T16:21:38.195Z,1034.25
2023-05-20T16:24:06.008Z,1037.40
2023-05-20T16:26:34.190Z,1037.95
2023-05-20T16:29:01.760Z,1037.82
2023-05-20T16:31:29.968Z,1039.37
2023-05-20T16:33:58.250Z,1036.65
2023-05-20T16:36:25.952Z,1038.23
2023-05-20T16:38:53.590Z,1035.43
2023-05-20T16:41:22.919Z,1034.32
2023-05-20T16:43:50.551Z,1023.33
2023-05-20T16:46:18.302Z,1031.55
2023-05-20T16:48:46.375Z,1028.75
2023-05-20T16:51:14.254Z,1024.57
2023-05-20T16:53:41.775Z,1025.78
2023-05-20T16:56:09.445Z,1025.23
2023-05-20T16:58:37.508Z,1024.73
2023-05-20T17:01:05.241Z,1022.33
2023-05-20T17:03:33.439Z,1027.40
2023-05-20T17:06:01.854Z,1027.22
2023-05-20T17:08:29.907Z,1025.07
2023-05-20T17:10:59.755Z,1027.50
2023-05-20T17:13:27.331Z,1020.60
2023-05-20T17:15:55.501Z,1020.63
2023-05-20T17:18:23.514Z,1021.38
2023-05-20T17:20:51.748Z,1019.47
2023-05-20T17:23:19.330Z,1020.10
2023-05-20T17:25:47.334Z,1019.22
2023-05-20T17:28:14.907Z,1021.33
2023-05-20T17:30:42.891Z,1025.15
2023-05-20T17:33:11.318Z,1025.70
2023-05-20T17:35:39.077Z,1025.03
2023-05-20T17:38:07.243Z,1025.88
2023-05-20T17:40:36.061Z,1024.90
2023-05-20T17:43:04.031Z,1025.10
2023-05-20T17:45:31.726Z,1022.22
2023-05-20T17:47:59.722Z,1025.90
2023-05-20T17:50:27.472Z,1021.55
2023-05-20T17:52:55.249Z,1022.65
2023-05-20T17:55:23.431Z,1023.30
2023-05-20T17:57:51.394Z,1021.50
2023-05-20T18:00:21.512Z,1017.00
2023-05-20T18:02:49.965Z,1020.17
2023-05-20T18:05:18.206Z,1021.35
2023-05-20T18:07:46.052Z,1019.05
2023-05-20T18:10:14.455Z,1019.03
2023-05-20T18:12:42.928Z,1016.87
2023-05-20T18:15:10.706Z,1013.15
2023-05-20T18:17:40.171Z,1004.97
2023-05-20T18:20:09.781Z,1001.47
2023-05-20T18:22:40.304Z,1002.28
2023-05-20T18:25:09.120Z,1000.83
2023-05-20T18:27:37.140Z,1002.20
2023-05-20T18:30:05.498Z,999.47
2023-05-20T18:32:33.416Z,995.03
2023-05-20T18:35:01.586Z,998.15
2023-05-20T18:37:30.086Z,995.75
2023-05-20T18:39:58.875Z,998.47
2023-05-20T18:42:26.573Z,998.25
2023-05-20T18:44:54.354Z,997.58
2023-05-20T18:47:22.005Z,998.08
2023-05-20T18:49:50.047Z,998.63
2023-05-20T18:52:18.197Z,1001.22
2023-05-20T18:54:46.411Z,1000.33
2023-05-20T18:57:14.085Z,996.00
2023-05-20T18:59:42.066Z,999.38
2023-05-20T19:02:10.181Z,995.47
2023-05-20T19:04:38.213Z,990.85
2023-05-20T19:07:07.013Z,993.40
2023-05-20T19:09:35.118Z,997.35
2023-05-20T19:12:04.924Z,991.97
2023-05-20T19:14:32.992Z,992.25
2023-05-20T19:17:01.330Z,990.42
2023-05-20T19:19:29.589Z,993.03
2023-05-20T19:21:57.374Z,995.00
2023-05-20T19:24:25.358Z,994.55
2023-05-20T19:26:52.879Z,994.25
2023-05-20T19:29:20.577Z,995.10
2023-05-20T19:31:48.220Z,993.10
2023-05-20T19:34:15.931Z,994.15
2023-05-20T19:36:44.518Z,991.25
2023-05-20T19:39:12.149Z,994.85
2023-05-20T19:41:40.237Z,995.35
2023-05-20T19:44:08.836Z,992.40
2023-05-20T19:46:36.892Z,991.92
2023-05-20T19:49:04.705Z,992.57
2023-05-20T19:51:32.449Z,989.58
2023-05-20T19:54:00.721Z,989.90
2023-05-20T19:56:28.338Z,991.80
2023-05-20T19:58:57.627Z,987.33
2023-05-20T20:01:25.583Z,987.95
2023-05-20T20:03:53.980Z,990.58
2023-05-20T20:06:21.776Z,994.17
2023-05-20T20:08:49.786Z,991.50
2023-05-20T20:11:17.736Z,994.28
2023-05-20T20:13:46.476Z,994.53
2023-05-20T20:16:15.593Z,990.93
2023-05-20T20:18:43.379Z,995.78
2023-05-20T20:21:11.480Z,993.60
2023-05-20T20:23:39.098Z,991.03
2023-05-20T20:26:07.849Z,991.27
2023-05-20T20:28:35.519Z,989.97
2023-05-20T20:31:03.548Z,989.88
2023-05-20T20:33:31.958Z,986.33
2023-05-20T20:35:59.546Z,989.33
2023-05-20T20:38:27.087Z,985.10
2023-05-20T20:40:55.126Z,985.70
2023-05-20T20:43:22.965Z,985.60
2023-05-20T20:45:53.176Z,986.22
2023-05-20T20:48:26.598Z,980.50
2023-05-20T20:50:54.502Z,983.25
2023-05-20T20:53:22.585Z,982.05
2023-05-20T20:55:51.580Z,982.85
2023-05-20T20:58:20.132Z,980.05
2023-05-20T21:00:48.853Z,978.88
2023-05-20T21:03:18.511Z,979.90
2023-05-20T21:05:48.594Z,986.42
2023-05-20T21:08:16.645Z,984.65
2023-05-20T21:10:44.761Z,985.22
2023-05-20T21:13:12.368Z,986.58
2023-05-20T21:15:41.806Z,986.80
2023-05-20T21:18:09.972Z,990.65
2023-05-20T21:20:37.550Z,986.28
2023-05-20T21:23:05.298Z,990.22
2023-05-20T21:25:32.864Z,989.20
2023-05-20T21:28:00.565Z,987.95
2023-05-20T21:30:28.518Z,983.58
2023-05-20T21:32:56.145Z,983.45
2023-05-20T21:35:24.184Z,974.25
2023-05-20T21:37:52.244Z,970.78
2023-05-20T21:40:20.450Z,971.72
2023-05-20T21:42:50.701Z,978.83
2023-05-20T21:45:18.541Z,976.13
2023-05-20T21:47:47.117Z,975.25
2023-05-20T21:50:15.392Z,968.95
2023-05-20T21:52:43.283Z,968.33
2023-05-20T21:55:11.902Z,971.55
2023-05-20T21:57:39.582Z,969.40
2023-05-20T22:00:10.559Z,973.50
2023-05-20T22:02:38.422Z,970.30
2023-05-20T22:05:06.620Z,969.25
2023-05-20T22:07:34.595Z,958.38
2023-05-20T22:10:02.394Z,963.83
2023-05-20T22:12:29.990Z,962.78
2023-05-20T22:14:58.180Z,962.03
2023-05-20T22:17:26.320Z,964.97
2023-05-20T22:19:54.362Z,965.15
2023-05-20T22:22:22.543Z,963.75
2023-05-20T22:24:50.118Z,965.35
2023-05-20T22:27:18.125Z,963.08
2023-05-20T22:29:46.250Z,964.05
2023-05-20T22:32:14.203Z,965.60
2023-05-20T22:34:42.780Z,966.28
2023-05-20T22:37:11.780Z,961.38
2023-05-20T22:39:39.954Z,962.85
2023-05-20T22:42:07.547Z,959.63
2023-05-20T22:44:35.116Z,960.70
2023-05-20T22:47:03.150Z,957.13
2023-05-20T22:49:30.798Z,961.50
2023-05-20T22:51:59.347Z,958.92
2023-05-20T22:54:27.362Z,966.75
2023-05-20T22:56:59.139Z,963.80
2023-05-20T22:59:26.973Z,959.35
2023-05-20T23:01:55.118Z,958.38
2023-05-20T23:04:23.783Z,958.72
2023-05-20T23:06:53.807Z,953.75
2023-05-20T23:09:21.515Z,959.03
2023-05-20T23:11:49.057Z,960.67
2023-05-20T23:14:17.115Z,954.58
2023-05-20T23:16:44.769Z,957.83
2023-05-20T23:19:12.468Z,956.50
2023-05-20T23:21:40.716Z,961.53
2023-05-20T23:24:08.586Z,961.45
2023-05-20T23:26:37.825Z,954.88
2023-05-20T23:29:05.516Z,956.92
2023-05-20T23:31:33.953Z,960.00
2023-05-20T23:34:03.745Z,961.15
2023-05-20T23:36:34.582Z,960.67
2023-05-20T23:39:02.885Z,959.53
2023-05-20T23:41:30.728Z,957.53
2023-05-20T23:43:58.415Z,956.42
2023-05-20T23:46:26.475Z,953.13
2023-05-20T23:48:54.925Z,957.00
2023-05-20T23:51:22.956Z,959.47
2023-05-20T23:53:50.545Z,961.30
2023-05-20T23:56:18.262Z,957.65
2023-05-20T23:58:47.330Z,956.17
